sensor_id;sensor_type;location;lat;lon;timestamp;P1;durP1;ratioP1;P2;durP2;ratioP2
67108;SDS011;54027;50.786;7.058;2023-03-31T00:00:24;4.22;;;0.90;;
67108;SDS011;54027;50.786;7.058;2023-03-31T00:02:50;4.00;;;0.95;;
67108;SDS011;54027;50.786;7.058;2023-03-31T00:05:18;4.38;;;1.08;;
67108;SDS011;54027;50.786;7.058;2023-03-31T00:07:45;3.85;;;1.13;;
67108;SDS011;54027;50.786;7.058;2023-03-31T00:10:12;4.68;;;1.23;;
67108;SDS011;54027;50.786;7.058;2023-03-31T00:12:38;5.15;;;1.42;;
67108;SDS011;54027;50.786;7.058;2023-03-31T00:15:04;7.13;;;1.30;;
67108;SDS011;54027;50.786;7.058;2023-03-31T00:17:30;1.85;;;0.85;;
67108;SDS011;54027;50.786;7.058;2023-03-31T00:19:57;3.88;;;1.35;;
67108;SDS011;54027;50.786;7.058;2023-03-31T00:22:24;3.03;;;0.80;;
67108;SDS011;54027;50.786;7.058;2023-03-31T00:24:51;3.67;;;1.00;;
67108;SDS011;54027;50.786;7.058;2023-03-31T00:27:17;3.75;;;1.13;;
67108;SDS011;54027;50.786;7.058;2023-03-31T00:29:42;2.35;;;0.90;;
67108;SDS011;54027;50.786;7.058;2023-03-31T00:32:09;3.47;;;0.93;;
67108;SDS011;54027;50.786;7.058;2023-03-31T00:34:35;5.72;;;1.00;;
67108;SDS011;54027;50.786;7.058;2023-03-31T00:37:01;4.32;;;1.25;;
67108;SDS011;54027;50.786;7.058;2023-03-31T00:39:27;5.13;;;1.38;;
67108;SDS011;54027;50.786;7.058;2023-03-31T00:41:56;3.55;;;0.80;;
67108;SDS011;54027;50.786;7.058;2023-03-31T00:44:23;4.90;;;1.27;;
67108;SDS011;54027;50.786;7.058;2023-03-31T00:49:39;4.43;;;0.90;;
67108;SDS011;54027;50.786;7.058;2023-03-31T00:54:40;3.15;;;1.02;;
67108;SDS011;54027;50.786;7.058;2023-03-31T00:57:09;3.28;;;0.90;;
67108;SDS011;54027;50.786;7.058;2023-03-31T00:59:51;4.68;;;1.15;;
67108;SDS011;54027;50.786;7.058;2023-03-31T01:02:20;7.25;;;1.27;;
67108;SDS011;54027;50.786;7.058;2023-03-31T01:04:50;4.90;;;1.10;;
67108;SDS011;54027;50.786;7.058;2023-03-31T01:07:22;3.78;;;1.00;;
67108;SDS011;54027;50.786;7.058;2023-03-31T01:09:55;4.72;;;1.25;;
67108;SDS011;54027;50.786;7.058;2023-03-31T01:12:24;4.32;;;1.02;;
67108;SDS011;54027;50.786;7.058;2023-03-31T01:14:50;4.95;;;1.13;;
67108;SDS011;54027;50.786;7.058;2023-03-31T01:17:17;5.97;;;1.10;;
67108;SDS011;54027;50.786;7.058;2023-03-31T01:20:01;4.72;;;1.10;;
67108;SDS011;54027;50.786;7.058;2023-03-31T01:39:05;7.88;;;1.17;;
67108;SDS011;54027;50.786;7.058;2023-03-31T01:44:26;8.43;;;2.33;;
67108;SDS011;54027;50.786;7.058;2023-03-31T01:47:09;7.32;;;1.42;;
67108;SDS011;54027;50.786;7.058;2023-03-31T01:57:40;7.85;;;1.52;;
67108;SDS011;54027;50.786;7.058;2023-03-31T02:02:51;11.77;;;2.25;;
67108;SDS011;54027;50.786;7.058;2023-03-31T02:05:22;9.30;;;2.00;;
67108;SDS011;54027;50.786;7.058;2023-03-31T02:07:53;8.02;;;1.52;;
67108;SDS011;54027;50.786;7.058;2023-03-31T02:10:22;8.00;;;1.90;;
67108;SDS011;54027;50.786;7.058;2023-03-31T02:12:50;12.38;;;2.47;;
67108;SDS011;54027;50.786;7.058;2023-03-31T02:15:22;11.02;;;1.90;;
67108;SDS011;54027;50.786;7.058;2023-03-31T02:17:53;10.68;;;2.30;;
67108;SDS011;54027;50.786;7.058;2023-03-31T02:20:23;11.80;;;1.80;;
67108;SDS011;54027;50.786;7.058;2023-03-31T02:22:54;10.73;;;2.03;;
67108;SDS011;54027;50.786;7.058;2023-03-31T02:25:22;12.00;;;2.08;;
67108;SDS011;54027;50.786;7.058;2023-03-31T02:27:54;12.05;;;2.33;;
67108;SDS011;54027;50.786;7.058;2023-03-31T02:30:25;9.30;;;2.22;;
67108;SDS011;54027;50.786;7.058;2023-03-31T02:32:58;9.75;;;1.98;;
67108;SDS011;54027;50.786;7.058;2023-03-31T02:35:24;11.95;;;2.47;;
67108;SDS011;54027;50.786;7.058;2023-03-31T02:37:49;8.38;;;1.98;;
67108;SDS011;54027;50.786;7.058;2023-03-31T02:40:20;12.27;;;2.38;;
67108;SDS011;54027;50.786;7.058;2023-03-31T02:42:47;3.25;;;1.40;;
67108;SDS011;54027;50.786;7.058;2023-03-31T02:48:26;9.30;;;1.90;;
67108;SDS011;54027;50.786;7.058;2023-03-31T02:56:38;10.38;;;2.28;;
67108;SDS011;54027;50.786;7.058;2023-03-31T02:59:18;7.28;;;1.70;;
67108;SDS011;54027;50.786;7.058;2023-03-31T03:02:09;8.82;;;1.88;;
67108;SDS011;54027;50.786;7.058;2023-03-31T03:10:16;9.13;;;1.88;;
67108;SDS011;54027;50.786;7.058;2023-03-31T03:12:55;12.52;;;1.95;;
67108;SDS011;54027;50.786;7.058;2023-03-31T03:15:39;9.07;;;2.13;;
67108;SDS011;54027;50.786;7.058;2023-03-31T03:18:06;10.70;;;1.50;;
67108;SDS011;54027;50.786;7.058;2023-03-31T03:20:31;8.00;;;1.83;;
67108;SDS011;54027;50.786;7.058;2023-03-31T03:23:00;9.50;;;2.08;;
67108;SDS011;54027;50.786;7.058;2023-03-31T03:25:26;5.18;;;1.58;;
67108;SDS011;54027;50.786;7.058;2023-03-31T03:27:54;9.70;;;1.80;;
67108;SDS011;54027;50.786;7.058;2023-03-31T03:30:20;9.00;;;2.47;;
67108;SDS011;54027;50.786;7.058;2023-03-31T03:32:45;4.78;;;1.27;;
67108;SDS011;54027;50.786;7.058;2023-03-31T03:35:11;8.57;;;2.03;;
67108;SDS011;54027;50.786;7.058;2023-03-31T03:37:37;8.05;;;1.67;;
67108;SDS011;54027;50.786;7.058;2023-03-31T03:40:02;6.10;;;1.33;;
67108;SDS011;54027;50.786;7.058;2023-03-31T03:42:32;5.32;;;1.48;;
67108;SDS011;54027;50.786;7.058;2023-03-31T03:44:57;9.48;;;1.88;;
67108;SDS011;54027;50.786;7.058;2023-03-31T03:47:23;8.68;;;1.50;;
67108;SDS011;54027;50.786;7.058;2023-03-31T03:49:48;7.65;;;2.75;;
67108;SDS011;54027;50.786;7.058;2023-03-31T03:52:14;10.07;;;1.55;;
67108;SDS011;54027;50.786;7.058;2023-03-31T03:54:40;5.22;;;1.52;;
67108;SDS011;54027;50.786;7.058;2023-03-31T03:57:05;7.20;;;1.73;;
67108;SDS011;54027;50.786;7.058;2023-03-31T03:59:31;6.10;;;1.40;;
67108;SDS011;54027;50.786;7.058;2023-03-31T04:01:57;8.43;;;1.45;;
67108;SDS011;54027;50.786;7.058;2023-03-31T04:04:22;7.90;;;1.75;;
67108;SDS011;54027;50.786;7.058;2023-03-31T04:06:48;4.78;;;1.52;;
67108;SDS011;54027;50.786;7.058;2023-03-31T04:09:13;7.22;;;1.60;;
67108;SDS011;54027;50.786;7.058;2023-03-31T04:11:38;7.57;;;1.42;;
67108;SDS011;54027;50.786;7.058;2023-03-31T04:14:04;8.30;;;1.35;;
67108;SDS011;54027;50.786;7.058;2023-03-31T04:16:29;3.25;;;1.13;;
67108;SDS011;54027;50.786;7.058;2023-03-31T04:18:56;5.50;;;1.52;;
67108;SDS011;54027;50.786;7.058;2023-03-31T04:21:23;6.05;;;1.23;;
67108;SDS011;54027;50.786;7.058;2023-03-31T04:23:50;4.85;;;1.48;;
67108;SDS011;54027;50.786;7.058;2023-03-31T04:26:23;5.18;;;1.38;;
67108;SDS011;54027;50.786;7.058;2023-03-31T04:29:06;4.95;;;1.10;;
67108;SDS011;54027;50.786;7.058;2023-03-31T04:31:33;4.47;;;1.50;;
67108;SDS011;54027;50.786;7.058;2023-03-31T04:34:02;5.03;;;1.50;;
67108;SDS011;54027;50.786;7.058;2023-03-31T04:36:31;6.90;;;1.45;;
67108;SDS011;54027;50.786;7.058;2023-03-31T04:38:57;8.57;;;1.77;;
67108;SDS011;54027;50.786;7.058;2023-03-31T04:41:23;5.30;;;1.58;;
67108;SDS011;54027;50.786;7.058;2023-03-31T04:43:49;4.30;;;0.90;;
67108;SDS011;54027;50.786;7.058;2023-03-31T04:46:15;3.15;;;1.00;;
67108;SDS011;54027;50.786;7.058;2023-03-31T04:48:40;3.03;;;0.77;;
67108;SDS011;54027;50.786;7.058;2023-03-31T04:51:06;4.35;;;1.40;;
67108;SDS011;54027;50.786;7.058;2023-03-31T04:53:33;4.72;;;1.17;;
67108;SDS011;54027;50.786;7.058;2023-03-31T04:55:59;10.07;;;1.25;;
67108;SDS011;54027;50.786;7.058;2023-03-31T04:58:24;3.63;;;0.93;;
67108;SDS011;54027;50.786;7.058;2023-03-31T05:00:50;5.10;;;1.45;;
67108;SDS011;54027;50.786;7.058;2023-03-31T05:03:16;5.20;;;1.10;;
67108;SDS011;54027;50.786;7.058;2023-03-31T05:05:41;6.57;;;1.40;;
67108;SDS011;54027;50.786;7.058;2023-03-31T05:08:07;6.45;;;1.30;;
67108;SDS011;54027;50.786;7.058;2023-03-31T05:10:32;5.80;;;1.50;;
67108;SDS011;54027;50.786;7.058;2023-03-31T05:12:57;5.93;;;1.25;;
67108;SDS011;54027;50.786;7.058;2023-03-31T05:15:23;3.70;;;1.45;;
67108;SDS011;54027;50.786;7.058;2023-03-31T05:17:49;1.95;;;1.00;;
67108;SDS011;54027;50.786;7.058;2023-03-31T05:20:16;3.72;;;1.10;;
67108;SDS011;54027;50.786;7.058;2023-03-31T05:22:43;3.47;;;1.20;;
67108;SDS011;54027;50.786;7.058;2023-03-31T05:25:09;7.90;;;1.85;;
67108;SDS011;54027;50.786;7.058;2023-03-31T05:27:38;5.60;;;1.10;;
67108;SDS011;54027;50.786;7.058;2023-03-31T05:30:04;5.03;;;0.90;;
67108;SDS011;54027;50.786;7.058;2023-03-31T05:32:30;3.15;;;0.70;;
67108;SDS011;54027;50.786;7.058;2023-03-31T05:34:55;5.60;;;1.27;;
67108;SDS011;54027;50.786;7.058;2023-03-31T05:37:21;3.70;;;1.13;;
67108;SDS011;54027;50.786;7.058;2023-03-31T05:39:51;4.05;;;1.08;;
67108;SDS011;54027;50.786;7.058;2023-03-31T05:42:16;4.55;;;1.13;;
67108;SDS011;54027;50.786;7.058;2023-03-31T05:44:42;1.98;;;0.93;;
67108;SDS011;54027;50.786;7.058;2023-03-31T05:47:07;1.83;;;0.70;;
67108;SDS011;54027;50.786;7.058;2023-03-31T05:49:33;0.68;;;0.50;;
67108;SDS011;54027;50.786;7.058;2023-03-31T05:51:58;3.67;;;1.00;;
67108;SDS011;54027;50.786;7.058;2023-03-31T05:54:24;3.35;;;0.63;;
67108;SDS011;54027;50.786;7.058;2023-03-31T05:56:50;0.63;;;0.30;;
67108;SDS011;54027;50.786;7.058;2023-03-31T05:59:15;2.28;;;0.52;;
67108;SDS011;54027;50.786;7.058;2023-03-31T06:01:41;1.27;;;0.63;;
67108;SDS011;54027;50.786;7.058;2023-03-31T06:04:06;1.55;;;0.45;;
67108;SDS011;54027;50.786;7.058;2023-03-31T06:06:31;2.42;;;0.68;;
67108;SDS011;54027;50.786;7.058;2023-03-31T06:08:59;3.03;;;0.50;;
67108;SDS011;54027;50.786;7.058;2023-03-31T06:11:24;2.85;;;0.50;;
67108;SDS011;54027;50.786;7.058;2023-03-31T06:13:50;2.53;;;0.60;;
67108;SDS011;54027;50.786;7.058;2023-03-31T06:16:16;2.55;;;0.73;;
67108;SDS011;54027;50.786;7.058;2023-03-31T06:18:42;1.13;;;0.50;;
67108;SDS011;54027;50.786;7.058;2023-03-31T06:21:10;2.00;;;0.70;;
67108;SDS011;54027;50.786;7.058;2023-03-31T06:23:37;1.58;;;0.65;;
67108;SDS011;54027;50.786;7.058;2023-03-31T06:26:04;2.25;;;0.70;;
67108;SDS011;54027;50.786;7.058;2023-03-31T06:28:32;4.32;;;0.47;;
67108;SDS011;54027;50.786;7.058;2023-03-31T06:30:58;1.90;;;0.82;;
67108;SDS011;54027;50.786;7.058;2023-03-31T06:33:28;0.52;;;0.32;;
67108;SDS011;54027;50.786;7.058;2023-03-31T06:35:54;2.28;;;0.50;;
67108;SDS011;54027;50.786;7.058;2023-03-31T06:38:21;2.42;;;0.40;;
67108;SDS011;54027;50.786;7.058;2023-03-31T06:40:47;1.02;;;0.30;;
67108;SDS011;54027;50.786;7.058;2023-03-31T06:43:12;0.32;;;0.30;;
67108;SDS011;54027;50.786;7.058;2023-03-31T06:45:37;0.60;;;0.50;;
67108;SDS011;54027;50.786;7.058;2023-03-31T06:48:03;5.93;;;0.90;;
67108;SDS011;54027;50.786;7.058;2023-03-31T06:50:28;1.13;;;0.55;;
67108;SDS011;54027;50.786;7.058;2023-03-31T06:52:53;1.48;;;0.70;;
67108;SDS011;54027;50.786;7.058;2023-03-31T06:55:19;1.42;;;0.73;;
67108;SDS011;54027;50.786;7.058;2023-03-31T06:57:45;1.85;;;0.63;;
67108;SDS011;54027;50.786;7.058;2023-03-31T07:00:10;1.13;;;0.60;;
67108;SDS011;54027;50.786;7.058;2023-03-31T07:02:36;1.23;;;0.80;;
67108;SDS011;54027;50.786;7.058;2023-03-31T07:05:02;1.70;;;0.50;;
67108;SDS011;54027;50.786;7.058;2023-03-31T07:07:30;1.20;;;0.40;;
67108;SDS011;54027;50.786;7.058;2023-03-31T07:09:56;0.82;;;0.60;;
67108;SDS011;54027;50.786;7.058;2023-03-31T07:12:22;2.05;;;0.73;;
67108;SDS011;54027;50.786;7.058;2023-03-31T07:14:48;1.40;;;0.50;;
67108;SDS011;54027;50.786;7.058;2023-03-31T07:17:14;1.85;;;0.60;;
67108;SDS011;54027;50.786;7.058;2023-03-31T07:19:39;2.15;;;0.93;;
67108;SDS011;54027;50.786;7.058;2023-03-31T07:22:06;2.65;;;0.70;;
67108;SDS011;54027;50.786;7.058;2023-03-31T07:24:32;1.17;;;0.63;;
67108;SDS011;54027;50.786;7.058;2023-03-31T07:26:57;1.48;;;0.80;;
67108;SDS011;54027;50.786;7.058;2023-03-31T07:29:23;1.98;;;0.60;;
67108;SDS011;54027;50.786;7.058;2023-03-31T07:31:49;2.42;;;0.60;;
67108;SDS011;54027;50.786;7.058;2023-03-31T07:34:14;4.95;;;0.70;;
67108;SDS011;54027;50.786;7.058;2023-03-31T07:36:40;1.67;;;0.57;;
67108;SDS011;54027;50.786;7.058;2023-03-31T07:39:05;1.42;;;0.60;;
67108;SDS011;54027;50.786;7.058;2023-03-31T07:41:31;2.72;;;0.50;;
67108;SDS011;54027;50.786;7.058;2023-03-31T07:43:59;1.33;;;0.55;;
67108;SDS011;54027;50.786;7.058;2023-03-31T07:46:25;1.65;;;0.63;;
67108;SDS011;54027;50.786;7.058;2023-03-31T07:48:52;1.75;;;0.60;;
67108;SDS011;54027;50.786;7.058;2023-03-31T07:51:19;2.60;;;0.90;;
67108;SDS011;54027;50.786;7.058;2023-03-31T07:53:47;2.80;;;0.63;;
67108;SDS011;54027;50.786;7.058;2023-03-31T07:56:13;2.33;;;0.75;;
67108;SDS011;54027;50.786;7.058;2023-03-31T07:58:41;2.42;;;0.73;;
67108;SDS011;54027;50.786;7.058;2023-03-31T08:01:06;2.25;;;0.70;;
67108;SDS011;54027;50.786;7.058;2023-03-31T08:03:32;1.77;;;0.52;;
67108;SDS011;54027;50.786;7.058;2023-03-31T08:05:58;1.45;;;0.45;;
67108;SDS011;54027;50.786;7.058;2023-03-31T08:08:24;3.88;;;0.63;;
67108;SDS011;54027;50.786;7.058;2023-03-31T08:10:49;2.97;;;0.60;;
67108;SDS011;54027;50.786;7.058;2023-03-31T08:13:14;4.95;;;0.77;;
67108;SDS011;54027;50.786;7.058;2023-03-31T08:15:40;4.35;;;0.80;;
67108;SDS011;54027;50.786;7.058;2023-03-31T08:18:05;1.58;;;0.70;;
67108;SDS011;54027;50.786;7.058;2023-03-31T08:20:31;4.03;;;1.00;;
67108;SDS011;54027;50.786;7.058;2023-03-31T08:22:56;2.58;;;0.75;;
67108;SDS011;54027;50.786;7.058;2023-03-31T08:25:22;3.47;;;0.98;;
67108;SDS011;54027;50.786;7.058;2023-03-31T08:27:48;5.60;;;1.60;;
67108;SDS011;54027;50.786;7.058;2023-03-31T08:30:15;4.75;;;1.00;;
67108;SDS011;54027;50.786;7.058;2023-03-31T08:32:42;4.93;;;1.05;;
67108;SDS011;54027;50.786;7.058;2023-03-31T08:35:08;3.10;;;0.70;;
67108;SDS011;54027;50.786;7.058;2023-03-31T08:37:34;2.95;;;0.82;;
67108;SDS011;54027;50.786;7.058;2023-03-31T08:40:01;5.25;;;1.10;;
67108;SDS011;54027;50.786;7.058;2023-03-31T08:47:35;4.35;;;1.10;;
67108;SDS011;54027;50.786;7.058;2023-03-31T08:50:04;6.03;;;1.40;;
67108;SDS011;54027;50.786;7.058;2023-03-31T08:52:36;6.05;;;2.13;;
67108;SDS011;54027;50.786;7.058;2023-03-31T08:55:12;4.65;;;1.10;;
67108;SDS011;54027;50.786;7.058;2023-03-31T08:57:56;7.57;;;1.85;;
67108;SDS011;54027;50.786;7.058;2023-03-31T09:00:35;7.30;;;1.40;;
67108;SDS011;54027;50.786;7.058;2023-03-31T09:06:19;5.45;;;1.40;;
67108;SDS011;54027;50.786;7.058;2023-03-31T09:08:50;5.55;;;1.90;;
67108;SDS011;54027;50.786;7.058;2023-03-31T09:11:29;7.88;;;1.80;;
67108;SDS011;54027;50.786;7.058;2023-03-31T09:14:11;5.47;;;1.60;;
67108;SDS011;54027;50.786;7.058;2023-03-31T09:19:36;9.13;;;1.65;;
67108;SDS011;54027;50.786;7.058;2023-03-31T09:22:08;6.80;;;1.77;;
67108;SDS011;54027;50.786;7.058;2023-03-31T09:24:45;7.70;;;2.10;;
67108;SDS011;54027;50.786;7.058;2023-03-31T09:27:17;7.70;;;1.73;;
67108;SDS011;54027;50.786;7.058;2023-03-31T09:32:57;6.93;;;1.60;;
67108;SDS011;54027;50.786;7.058;2023-03-31T09:35:29;8.13;;;1.70;;
67108;SDS011;54027;50.786;7.058;2023-03-31T09:37:57;6.20;;;1.60;;
67108;SDS011;54027;50.786;7.058;2023-03-31T09:40:23;7.95;;;1.70;;
67108;SDS011;54027;50.786;7.058;2023-03-31T09:43:24;8.05;;;1.80;;
67108;SDS011;54027;50.786;7.058;2023-03-31T09:45:46;6.90;;;1.85;;
67108;SDS011;54027;50.786;7.058;2023-03-31T09:48:13;9.65;;;1.83;;
67108;SDS011;54027;50.786;7.058;2023-03-31T09:50:47;7.07;;;2.08;;
67108;SDS011;54027;50.786;7.058;2023-03-31T09:53:37;9.05;;;2.42;;
67108;SDS011;54027;50.786;7.058;2023-03-31T09:58:41;7.78;;;2.13;;
67108;SDS011;54027;50.786;7.058;2023-03-31T10:01:09;10.40;;;2.00;;
67108;SDS011;54027;50.786;7.058;2023-03-31T10:03:51;7.60;;;2.15;;
67108;SDS011;54027;50.786;7.058;2023-03-31T10:06:18;8.88;;;2.10;;
67108;SDS011;54027;50.786;7.058;2023-03-31T10:09:01;11.02;;;1.90;;
67108;SDS011;54027;50.786;7.058;2023-03-31T10:11:29;9.27;;;2.20;;
67108;SDS011;54027;50.786;7.058;2023-03-31T10:14:03;9.63;;;2.33;;
67108;SDS011;54027;50.786;7.058;2023-03-31T10:16:42;8.40;;;1.80;;
67108;SDS011;54027;50.786;7.058;2023-03-31T10:21:38;8.32;;;1.63;;
67108;SDS011;54027;50.786;7.058;2023-03-31T10:24:08;7.55;;;2.03;;
67108;SDS011;54027;50.786;7.058;2023-03-31T10:26:34;10.50;;;2.35;;
67108;SDS011;54027;50.786;7.058;2023-03-31T10:29:00;6.80;;;2.58;;
67108;SDS011;54027;50.786;7.058;2023-03-31T10:31:35;11.57;;;2.53;;
67108;SDS011;54027;50.786;7.058;2023-03-31T10:34:08;8.77;;;1.60;;
67108;SDS011;54027;50.786;7.058;2023-03-31T10:36:43;8.20;;;1.83;;
67108;SDS011;54027;50.786;7.058;2023-03-31T10:39:11;7.32;;;1.45;;
67108;SDS011;54027;50.786;7.058;2023-03-31T10:41:40;8.40;;;1.42;;
67108;SDS011;54027;50.786;7.058;2023-03-31T10:44:10;6.40;;;1.75;;
67108;SDS011;54027;50.786;7.058;2023-03-31T10:47:19;4.88;;;1.40;;
67108;SDS011;54027;50.786;7.058;2023-03-31T10:49:46;6.35;;;1.83;;
67108;SDS011;54027;50.786;7.058;2023-03-31T10:52:14;7.70;;;2.50;;
67108;SDS011;54027;50.786;7.058;2023-03-31T10:54:45;10.65;;;1.85;;
67108;SDS011;54027;50.786;7.058;2023-03-31T10:57:12;8.57;;;1.60;;
67108;SDS011;54027;50.786;7.058;2023-03-31T10:59:57;7.45;;;1.50;;
67108;SDS011;54027;50.786;7.058;2023-03-31T11:21:40;5.90;;;1.25;;
67108;SDS011;54027;50.786;7.058;2023-03-31T11:42:59;6.32;;;1.40;;
67108;SDS011;54027;50.786;7.058;2023-03-31T11:45:33;3.58;;;1.13;;
67108;SDS011;54027;50.786;7.058;2023-03-31T11:48:05;5.45;;;0.95;;
67108;SDS011;54027;50.786;7.058;2023-03-31T11:50:38;6.90;;;1.10;;
67108;SDS011;54027;50.786;7.058;2023-03-31T11:53:19;7.22;;;1.20;;
67108;SDS011;54027;50.786;7.058;2023-03-31T11:55:52;6.13;;;1.20;;
67108;SDS011;54027;50.786;7.058;2023-03-31T11:58:32;4.50;;;1.67;;
67108;SDS011;54027;50.786;7.058;2023-03-31T12:01:06;5.22;;;1.15;;
67108;SDS011;54027;50.786;7.058;2023-03-31T12:06:10;8.00;;;1.45;;
67108;SDS011;54027;50.786;7.058;2023-03-31T12:08:49;5.10;;;1.45;;
67108;SDS011;54027;50.786;7.058;2023-03-31T12:11:30;6.68;;;1.65;;
67108;SDS011;54027;50.786;7.058;2023-03-31T12:14:12;3.40;;;1.40;;
67108;SDS011;54027;50.786;7.058;2023-03-31T12:16:51;5.85;;;1.10;;
67108;SDS011;54027;50.786;7.058;2023-03-31T12:19:34;3.45;;;0.88;;
67108;SDS011;54027;50.786;7.058;2023-03-31T12:24:46;3.13;;;1.08;;
67108;SDS011;54027;50.786;7.058;2023-03-31T12:27:13;5.43;;;0.93;;
67108;SDS011;54027;50.786;7.058;2023-03-31T12:30:03;2.42;;;0.70;;
67108;SDS011;54027;50.786;7.058;2023-03-31T12:32:35;2.85;;;0.90;;
67108;SDS011;54027;50.786;7.058;2023-03-31T12:40:23;4.72;;;1.00;;
67108;SDS011;54027;50.786;7.058;2023-03-31T12:42:58;5.75;;;1.10;;
67108;SDS011;54027;50.786;7.058;2023-03-31T12:45:38;3.92;;;1.25;;
67108;SDS011;54027;50.786;7.058;2023-03-31T12:48:32;4.25;;;1.17;;
67108;SDS011;54027;50.786;7.058;2023-03-31T12:51:33;4.82;;;0.95;;
67108;SDS011;54027;50.786;7.058;2023-03-31T13:00:08;5.03;;;1.13;;
67108;SDS011;54027;50.786;7.058;2023-03-31T13:02:34;3.95;;;0.90;;
67108;SDS011;54027;50.786;7.058;2023-03-31T13:04:59;4.20;;;1.33;;
67108;SDS011;54027;50.786;7.058;2023-03-31T13:08:03;4.93;;;1.58;;
67108;SDS011;54027;50.786;7.058;2023-03-31T13:10:30;4.85;;;1.75;;
67108;SDS011;54027;50.786;7.058;2023-03-31T13:13:00;4.60;;;1.70;;
67108;SDS011;54027;50.786;7.058;2023-03-31T13:15:49;7.30;;;1.70;;
67108;SDS011;54027;50.786;7.058;2023-03-31T13:18:18;9.85;;;1.88;;
67108;SDS011;54027;50.786;7.058;2023-03-31T13:20:45;6.68;;;1.50;;
67108;SDS011;54027;50.786;7.058;2023-03-31T13:25:57;4.53;;;1.15;;
67108;SDS011;54027;50.786;7.058;2023-03-31T13:36:09;6.90;;;2.20;;
67108;SDS011;54027;50.786;7.058;2023-03-31T13:50:45;6.13;;;1.27;;
67108;SDS011;54027;50.786;7.058;2023-03-31T14:09:40;2.78;;;0.95;;
67108;SDS011;54027;50.786;7.058;2023-03-31T14:14:58;4.70;;;1.20;;
67108;SDS011;54027;50.786;7.058;2023-03-31T14:17:46;3.85;;;1.27;;
67108;SDS011;54027;50.786;7.058;2023-03-31T14:31:20;5.30;;;1.20;;
67108;SDS011;54027;50.786;7.058;2023-03-31T14:36:53;3.03;;;1.10;;
67108;SDS011;54027;50.786;7.058;2023-03-31T14:39:37;6.65;;;1.60;;
67108;SDS011;54027;50.786;7.058;2023-03-31T14:42:16;4.13;;;1.23;;
67108;SDS011;54027;50.786;7.058;2023-03-31T14:44:43;3.40;;;1.60;;
67108;SDS011;54027;50.786;7.058;2023-03-31T14:47:19;3.63;;;0.90;;
67108;SDS011;54027;50.786;7.058;2023-03-31T14:49:46;3.67;;;0.80;;
67108;SDS011;54027;50.786;7.058;2023-03-31T14:52:13;3.55;;;1.30;;
67108;SDS011;54027;50.786;7.058;2023-03-31T14:54:44;4.18;;;1.23;;
67108;SDS011;54027;50.786;7.058;2023-03-31T14:57:12;5.00;;;1.00;;
67108;SDS011;54027;50.786;7.058;2023-03-31T14:59:42;3.60;;;0.80;;
67108;SDS011;54027;50.786;7.058;2023-03-31T15:02:10;4.22;;;1.13;;
67108;SDS011;54027;50.786;7.058;2023-03-31T15:04:41;4.50;;;1.10;;
67108;SDS011;54027;50.786;7.058;2023-03-31T15:07:10;4.38;;;1.10;;
67108;SDS011;54027;50.786;7.058;2023-03-31T15:09:37;4.57;;;1.45;;
67108;SDS011;54027;50.786;7.058;2023-03-31T15:12:12;5.07;;;1.42;;
67108;SDS011;54027;50.786;7.058;2023-03-31T15:14:41;3.50;;;1.20;;
67108;SDS011;54027;50.786;7.058;2023-03-31T15:17:36;3.13;;;1.08;;
67108;SDS011;54027;50.786;7.058;2023-03-31T15:22:50;4.05;;;1.05;;
67108;SDS011;54027;50.786;7.058;2023-03-31T15:25:15;3.45;;;0.90;;
67108;SDS011;54027;50.786;7.058;2023-03-31T15:27:46;3.03;;;1.10;;
67108;SDS011;54027;50.786;7.058;2023-03-31T15:30:20;6.97;;;1.23;;
67108;SDS011;54027;50.786;7.058;2023-03-31T15:32:47;6.03;;;1.13;;
67108;SDS011;54027;50.786;7.058;2023-03-31T15:35:20;4.68;;;1.15;;
67108;SDS011;54027;50.786;7.058;2023-03-31T15:37:50;6.30;;;1.52;;
67108;SDS011;54027;50.786;7.058;2023-03-31T15:40:18;6.20;;;1.33;;
67108;SDS011;54027;50.786;7.058;2023-03-31T15:42:48;3.95;;;1.25;;
67108;SDS011;54027;50.786;7.058;2023-03-31T15:45:57;6.00;;;1.50;;
67108;SDS011;54027;50.786;7.058;2023-03-31T15:48:32;3.65;;;0.90;;
67108;SDS011;54027;50.786;7.058;2023-03-31T15:51:05;6.03;;;0.90;;
67108;SDS011;54027;50.786;7.058;2023-03-31T15:53:48;8.18;;;1.48;;
67108;SDS011;54027;50.786;7.058;2023-03-31T15:59:05;4.80;;;1.15;;
67108;SDS011;54027;50.786;7.058;2023-03-31T16:01:45;3.28;;;1.23;;
67108;SDS011;54027;50.786;7.058;2023-03-31T16:04:12;5.65;;;1.10;;
67108;SDS011;54027;50.786;7.058;2023-03-31T16:06:49;4.18;;;1.15;;
67108;SDS011;54027;50.786;7.058;2023-03-31T16:09:22;2.00;;;0.95;;
67108;SDS011;54027;50.786;7.058;2023-03-31T16:11:56;4.53;;;1.17;;
67108;SDS011;54027;50.786;7.058;2023-03-31T16:14:33;5.20;;;1.20;;
67108;SDS011;54027;50.786;7.058;2023-03-31T16:17:06;4.18;;;1.08;;
67108;SDS011;54027;50.786;7.058;2023-03-31T16:20:18;3.07;;;1.03;;
67108;SDS011;54027;50.786;7.058;2023-03-31T16:22:33;3.80;;;0.90;;
67108;SDS011;54027;50.786;7.058;2023-03-31T16:25:16;3.45;;;1.05;;
67108;SDS011;54027;50.786;7.058;2023-03-31T16:27:46;5.18;;;1.05;;
67108;SDS011;54027;50.786;7.058;2023-03-31T16:30:16;3.75;;;0.90;;
67108;SDS011;54027;50.786;7.058;2023-03-31T16:35:34;2.58;;;0.70;;
67108;SDS011;54027;50.786;7.058;2023-03-31T16:38:02;2.42;;;0.90;;
67108;SDS011;54027;50.786;7.058;2023-03-31T16:40:29;4.15;;;1.33;;
67108;SDS011;54027;50.786;7.058;2023-03-31T16:43:05;2.17;;;0.77;;
67108;SDS011;54027;50.786;7.058;2023-03-31T16:45:45;4.68;;;1.40;;
67108;SDS011;54027;50.786;7.058;2023-03-31T16:48:15;3.42;;;0.80;;
67108;SDS011;54027;50.786;7.058;2023-03-31T16:50:41;2.00;;;0.98;;
67108;SDS011;54027;50.786;7.058;2023-03-31T16:53:08;3.15;;;1.00;;
67108;SDS011;54027;50.786;7.058;2023-03-31T16:55:34;5.38;;;2.50;;
67108;SDS011;54027;50.786;7.058;2023-03-31T16:58:00;3.63;;;1.42;;
67108;SDS011;54027;50.786;7.058;2023-03-31T17:00:30;6.28;;;2.13;;
67108;SDS011;54027;50.786;7.058;2023-03-31T17:02:58;4.72;;;1.70;;
67108;SDS011;54027;50.786;7.058;2023-03-31T17:05:25;6.68;;;2.58;;
67108;SDS011;54027;50.786;7.058;2023-03-31T17:07:50;5.40;;;1.48;;
67108;SDS011;54027;50.786;7.058;2023-03-31T17:10:16;4.78;;;1.17;;
67108;SDS011;54027;50.786;7.058;2023-03-31T17:12:42;3.45;;;0.90;;
67108;SDS011;54027;50.786;7.058;2023-03-31T17:15:07;2.83;;;1.00;;
67108;SDS011;54027;50.786;7.058;2023-03-31T17:17:33;2.20;;;1.08;;
67108;SDS011;54027;50.786;7.058;2023-03-31T17:19:59;4.50;;;1.23;;
67108;SDS011;54027;50.786;7.058;2023-03-31T17:22:24;5.90;;;1.42;;
67108;SDS011;54027;50.786;7.058;2023-03-31T17:24:50;3.72;;;1.50;;
67108;SDS011;54027;50.786;7.058;2023-03-31T17:27:22;3.28;;;1.17;;
67108;SDS011;54027;50.786;7.058;2023-03-31T17:29:51;4.60;;;1.60;;
67108;SDS011;54027;50.786;7.058;2023-03-31T17:32:17;6.85;;;1.50;;
67108;SDS011;54027;50.786;7.058;2023-03-31T17:34:43;7.80;;;1.52;;
67108;SDS011;54027;50.786;7.058;2023-03-31T17:37:09;7.75;;;1.92;;
67108;SDS011;54027;50.786;7.058;2023-03-31T17:39:34;2.20;;;1.38;;
67108;SDS011;54027;50.786;7.058;2023-03-31T17:42:00;3.70;;;1.75;;
67108;SDS011;54027;50.786;7.058;2023-03-31T17:44:26;2.85;;;1.08;;
67108;SDS011;54027;50.786;7.058;2023-03-31T17:46:55;6.38;;;1.73;;
67108;SDS011;54027;50.786;7.058;2023-03-31T17:49:20;4.15;;;1.10;;
67108;SDS011;54027;50.786;7.058;2023-03-31T17:51:47;2.83;;;0.90;;
67108;SDS011;54027;50.786;7.058;2023-03-31T17:54:13;2.75;;;0.90;;
67108;SDS011;54027;50.786;7.058;2023-03-31T17:56:38;4.57;;;1.10;;
67108;SDS011;54027;50.786;7.058;2023-03-31T17:59:03;2.22;;;0.93;;
67108;SDS011;54027;50.786;7.058;2023-03-31T18:01:29;5.07;;;0.95;;
67108;SDS011;54027;50.786;7.058;2023-03-31T18:03:55;4.50;;;3.92;;
67108;SDS011;54027;50.786;7.058;2023-03-31T18:06:21;3.78;;;1.30;;
67108;SDS011;54027;50.786;7.058;2023-03-31T18:08:48;3.88;;;1.05;;
67108;SDS011;54027;50.786;7.058;2023-03-31T18:11:14;4.93;;;1.80;;